AAH44 PHNL-PHKO
Flight info
| Callsign | AAH44 |
|---|---|
| Flight time | 0h 32m |
| Altitude | 23000 |
| Route | PALAY3 LNY VECKI9 |
| Aircraft | B733/M-SDE2E3FHIRW/S |
Departure
| Time | 2026-04-23 16:45 |
|---|---|
| Airport | Daniel K. Inouye International Airport (PHNL) |
Arrival
| Time | 2026-04-23 17:17 |
|---|---|
| Airport | Ellison Onizuka Kona International Airport at Keāhole (PHKO) |
| Time | Latitude | Longitude | Altitude | Speed | Heading |
|---|---|---|---|---|---|
| 2026-04-23 16:24 | 21.32827 | -157.93166 | 25 ft | 0 kts | 360° |
| 2026-04-23 16:37 | 21.32818 | -157.93166 | 25 ft | 2 kts | 360° |
| 2026-04-23 16:37 | 21.32803 | -157.93166 | 25 ft | 2 kts | 0° |
| 2026-04-23 16:37 | 21.32787 | -157.93166 | 25 ft | 2 kts | 360° |
| 2026-04-23 16:37 | 21.32772 | -157.93166 | 25 ft | 2 kts | 0° |
| 2026-04-23 16:38 | 21.32757 | -157.93167 | 25 ft | 1 kts | 352° |
| 2026-04-23 16:38 | 21.32745 | -157.93158 | 25 ft | 2 kts | 301° |
| 2026-04-23 16:38 | 21.32741 | -157.93143 | 25 ft | 2 kts | 261° |
| 2026-04-23 16:38 | 21.32742 | -157.93135 | 25 ft | 0 kts | 268° |
| 2026-04-23 16:40 | 21.32742 | -157.93141 | 25 ft | 2 kts | 269° |
| 2026-04-23 16:40 | 21.32741 | -157.93170 | 25 ft | 5 kts | 269° |
| 2026-04-23 16:41 | 21.32741 | -157.93228 | 25 ft | 8 kts | 270° |
| 2026-04-23 16:41 | 21.32741 | -157.93303 | 25 ft | 11 kts | 270° |
| 2026-04-23 16:41 | 21.32741 | -157.93394 | 25 ft | 13 kts | 270° |
| 2026-04-23 16:41 | 21.32742 | -157.93503 | 25 ft | 15 kts | 270° |
| 2026-04-23 16:42 | 21.32742 | -157.93626 | 25 ft | 17 kts | 270° |
| 2026-04-23 16:42 | 21.32743 | -157.93767 | 25 ft | 19 kts | 270° |
| 2026-04-23 16:42 | 21.32743 | -157.93913 | 25 ft | 17 kts | 270° |
| 2026-04-23 16:42 | 21.32734 | -157.94038 | 25 ft | 15 kts | 246° |
| 2026-04-23 16:43 | 21.32654 | -157.94110 | 25 ft | 15 kts | 208° |
| 2026-04-23 16:43 | 21.32618 | -157.94132 | 25 ft | 3 kts | 208° |
| 2026-04-23 16:43 | 21.32593 | -157.94145 | 25 ft | 4 kts | 208° |
| 2026-04-23 16:43 | 21.32560 | -157.94163 | 25 ft | 6 kts | 199° |
| 2026-04-23 16:44 | 21.32527 | -157.94136 | 25 ft | 7 kts | 107° |
| 2026-04-23 16:44 | 21.32524 | -157.94070 | 25 ft | 18 kts | 90° |
| 2026-04-23 16:44 | 21.32525 | -157.93668 | 25 ft | 88 kts | 90° |
| 2026-04-23 16:44 | 21.32524 | -157.92773 | 25 ft | 147 kts | 90° |
| 2026-04-23 16:45 | 21.32524 | -157.91542 | 199 ft | 174 kts | 89° |
| 2026-04-23 16:45 | 21.32521 | -157.90245 | 845 ft | 173 kts | 93° |
| 2026-04-23 16:45 | 21.32071 | -157.89085 | 1498 ft | 176 kts | 131° |
| 2026-04-23 16:45 | 21.30946 | -157.88411 | 1795 ft | 198 kts | 162° |
| 2026-04-23 16:46 | 21.29516 | -157.88075 | 1981 ft | 219 kts | 164° |
| 2026-04-23 16:46 | 21.27987 | -157.87736 | 2400 ft | 229 kts | 164° |
| 2026-04-23 16:46 | 21.26390 | -157.87386 | 3043 ft | 234 kts | 164° |
| 2026-04-23 16:46 | 21.24774 | -157.86838 | 3278 ft | 252 kts | 142° |
| 2026-04-23 16:47 | 21.23660 | -157.85376 | 3719 ft | 255 kts | 109° |
| 2026-04-23 16:47 | 21.22970 | -157.83609 | 4360 ft | 261 kts | 111° |
| 2026-04-23 16:47 | 21.22215 | -157.81824 | 5060 ft | 265 kts | 112° |
| 2026-04-23 16:47 | 21.21429 | -157.80043 | 5741 ft | 270 kts | 113° |
| 2026-04-23 16:48 | 21.20600 | -157.78217 | 6425 ft | 274 kts | 114° |
| 2026-04-23 16:48 | 21.19747 | -157.76367 | 7106 ft | 278 kts | 114° |
| 2026-04-23 16:48 | 21.18869 | -157.74487 | 7778 ft | 283 kts | 115° |
| 2026-04-23 16:48 | 21.17968 | -157.72571 | 8447 ft | 288 kts | 115° |
| 2026-04-23 16:49 | 21.17056 | -157.70641 | 9103 ft | 292 kts | 115° |
| 2026-04-23 16:49 | 21.16124 | -157.68674 | 9760 ft | 297 kts | 115° |
| 2026-04-23 16:49 | 21.15176 | -157.66676 | 10251 ft | 309 kts | 115° |
| 2026-04-23 16:49 | 21.14158 | -157.64534 | 10339 ft | 334 kts | 115° |
| 2026-04-23 16:50 | 21.13085 | -157.62280 | 10741 ft | 347 kts | 115° |
| 2026-04-23 16:50 | 21.11972 | -157.59946 | 11383 ft | 352 kts | 115° |
| 2026-04-23 16:50 | 21.10849 | -157.57593 | 12042 ft | 356 kts | 115° |
| 2026-04-23 16:50 | 21.09593 | -157.55254 | 12704 ft | 361 kts | 119° |
| 2026-04-23 16:51 | 21.08281 | -157.52953 | 13352 ft | 365 kts | 119° |
| 2026-04-23 16:51 | 21.06955 | -157.50615 | 13992 ft | 369 kts | 118° |
| 2026-04-23 16:51 | 21.05617 | -157.48251 | 14636 ft | 372 kts | 119° |
| 2026-04-23 16:51 | 21.04241 | -157.45818 | 15286 ft | 376 kts | 119° |
| 2026-04-23 16:52 | 21.02880 | -157.43411 | 15909 ft | 380 kts | 119° |
| 2026-04-23 16:52 | 21.01501 | -157.40973 | 16535 ft | 383 kts | 119° |
| 2026-04-23 16:52 | 21.00106 | -157.38509 | 17134 ft | 387 kts | 119° |
| 2026-04-23 16:52 | 20.98707 | -157.36040 | 17735 ft | 390 kts | 119° |
| 2026-04-23 16:53 | 20.97291 | -157.33540 | 18293 ft | 394 kts | 120° |
| 2026-04-23 16:53 | 20.95874 | -157.31030 | 18869 ft | 397 kts | 120° |
| 2026-04-23 16:53 | 20.94433 | -157.28484 | 19464 ft | 398 kts | 120° |
| 2026-04-23 16:53 | 20.92986 | -157.25934 | 19985 ft | 402 kts | 120° |
| 2026-04-23 16:54 | 20.91520 | -157.23349 | 20481 ft | 407 kts | 120° |
| 2026-04-23 16:54 | 20.90058 | -157.20773 | 20974 ft | 410 kts | 120° |
| 2026-04-23 16:54 | 20.88545 | -157.18124 | 21422 ft | 415 kts | 120° |
| 2026-04-23 16:54 | 20.87029 | -157.15474 | 21934 ft | 417 kts | 121° |
| 2026-04-23 16:55 | 20.85511 | -157.12811 | 22433 ft | 419 kts | 121° |
| 2026-04-23 16:55 | 20.83996 | -157.10150 | 22893 ft | 422 kts | 121° |
| 2026-04-23 16:55 | 20.82482 | -157.07491 | 23024 ft | 424 kts | 121° |
| 2026-04-23 16:55 | 20.80935 | -157.04773 | 23134 ft | 422 kts | 121° |
| 2026-04-23 16:56 | 20.79097 | -157.02347 | 23123 ft | 420 kts | 141° |
| 2026-04-23 16:56 | 20.76586 | -157.00728 | 23129 ft | 418 kts | 155° |
| 2026-04-23 16:56 | 20.73936 | -156.99368 | 23107 ft | 419 kts | 153° |
| 2026-04-23 16:56 | 20.71335 | -156.97919 | 23101 ft | 418 kts | 152° |
| 2026-04-23 16:57 | 20.68762 | -156.96411 | 23094 ft | 417 kts | 151° |
| 2026-04-23 16:57 | 20.66214 | -156.94888 | 23086 ft | 416 kts | 150° |
| 2026-04-23 16:57 | 20.63694 | -156.93372 | 23082 ft | 415 kts | 150° |
| 2026-04-23 16:57 | 20.61146 | -156.91835 | 23076 ft | 416 kts | 150° |
| 2026-04-23 16:58 | 20.58598 | -156.90300 | 23074 ft | 417 kts | 150° |
| 2026-04-23 16:58 | 20.56070 | -156.88776 | 23077 ft | 418 kts | 150° |
| 2026-04-23 16:58 | 20.53530 | -156.87244 | 23083 ft | 418 kts | 150° |
| 2026-04-23 16:58 | 20.50987 | -156.85710 | 23081 ft | 418 kts | 150° |
| 2026-04-23 16:59 | 20.48445 | -156.84177 | 23076 ft | 417 kts | 150° |
| 2026-04-23 16:59 | 20.45938 | -156.82666 | 23072 ft | 418 kts | 150° |
| 2026-04-23 16:59 | 20.43405 | -156.81140 | 23078 ft | 417 kts | 150° |
| 2026-04-23 16:59 | 20.40843 | -156.79596 | 23076 ft | 418 kts | 150° |
| 2026-04-23 17:00 | 20.38296 | -156.78062 | 23077 ft | 417 kts | 150° |
| 2026-04-23 17:00 | 20.35781 | -156.76549 | 23075 ft | 417 kts | 150° |
| 2026-04-23 17:00 | 20.33239 | -156.75018 | 23074 ft | 417 kts | 150° |
| 2026-04-23 17:00 | 20.30726 | -156.73506 | 23077 ft | 418 kts | 150° |
| 2026-04-23 17:01 | 20.28170 | -156.71970 | 22931 ft | 415 kts | 150° |
| 2026-04-23 17:01 | 20.25677 | -156.70471 | 22265 ft | 414 kts | 150° |
| 2026-04-23 17:01 | 20.23170 | -156.68965 | 21462 ft | 414 kts | 150° |
| 2026-04-23 17:01 | 20.20679 | -156.67470 | 20825 ft | 410 kts | 150° |
| 2026-04-23 17:02 | 20.18195 | -156.65979 | 20276 ft | 403 kts | 150° |
| 2026-04-23 17:02 | 20.15772 | -156.64525 | 19732 ft | 397 kts | 149° |
| 2026-04-23 17:02 | 20.13392 | -156.63097 | 19200 ft | 392 kts | 149° |
| 2026-04-23 17:02 | 20.11012 | -156.61670 | 18662 ft | 387 kts | 149° |
| 2026-04-23 17:03 | 20.08671 | -156.60266 | 18120 ft | 383 kts | 149° |
| 2026-04-23 17:03 | 20.06362 | -156.58882 | 17572 ft | 379 kts | 149° |
| 2026-04-23 17:03 | 20.04075 | -156.57512 | 17056 ft | 381 kts | 149° |
| 2026-04-23 17:03 | 20.01728 | -156.56105 | 16543 ft | 388 kts | 149° |
| 2026-04-23 17:04 | 19.99390 | -156.54706 | 16006 ft | 383 kts | 149° |
| 2026-04-23 17:04 | 19.97063 | -156.53313 | 15466 ft | 378 kts | 149° |
| 2026-04-23 17:04 | 19.94777 | -156.51945 | 14939 ft | 373 kts | 149° |
| 2026-04-23 17:04 | 19.92517 | -156.50595 | 14417 ft | 369 kts | 149° |
| 2026-04-23 17:05 | 19.90276 | -156.49254 | 13912 ft | 364 kts | 149° |
| 2026-04-23 17:05 | 19.88055 | -156.47931 | 13392 ft | 361 kts | 149° |
| 2026-04-23 17:05 | 19.85876 | -156.46635 | 12908 ft | 360 kts | 149° |
| 2026-04-23 17:05 | 19.83690 | -156.45332 | 12416 ft | 364 kts | 149° |
| 2026-04-23 17:06 | 19.81469 | -156.44008 | 11897 ft | 360 kts | 149° |
| 2026-04-23 17:06 | 19.79324 | -156.42728 | 11393 ft | 355 kts | 149° |
| 2026-04-23 17:06 | 19.77175 | -156.41446 | 10895 ft | 350 kts | 149° |
| 2026-04-23 17:06 | 19.75042 | -156.40173 | 10409 ft | 345 kts | 149° |
| 2026-04-23 17:07 | 19.72982 | -156.38945 | 10111 ft | 335 kts | 149° |
| 2026-04-23 17:07 | 19.70966 | -156.37744 | 9965 ft | 322 kts | 149° |
| 2026-04-23 17:07 | 19.69084 | -156.36624 | 9987 ft | 299 kts | 149° |
| 2026-04-23 17:07 | 19.67301 | -156.35562 | 9895 ft | 287 kts | 149° |
| 2026-04-23 17:08 | 19.65542 | -156.34512 | 9437 ft | 290 kts | 149° |
| 2026-04-23 17:08 | 19.63790 | -156.33458 | 8935 ft | 293 kts | 149° |
| 2026-04-23 17:08 | 19.62002 | -156.32387 | 8487 ft | 294 kts | 149° |
| 2026-04-23 17:08 | 19.60236 | -156.31331 | 8090 ft | 293 kts | 149° |
| 2026-04-23 17:09 | 19.58460 | -156.30272 | 7705 ft | 291 kts | 149° |
| 2026-04-23 17:09 | 19.56692 | -156.29219 | 7320 ft | 289 kts | 149° |
| 2026-04-23 17:09 | 19.54986 | -156.28098 | 6919 ft | 286 kts | 136° |
| 2026-04-23 17:09 | 19.53945 | -156.26390 | 6622 ft | 276 kts | 103° |
| 2026-04-23 17:10 | 19.53728 | -156.24409 | 6464 ft | 265 kts | 94° |
| 2026-04-23 17:10 | 19.53582 | -156.22501 | 6259 ft | 258 kts | 94° |
| 2026-04-23 17:10 | 19.53435 | -156.20616 | 6059 ft | 252 kts | 94° |
| 2026-04-23 17:10 | 19.53293 | -156.18800 | 5897 ft | 244 kts | 94° |
| 2026-04-23 17:11 | 19.53152 | -156.17006 | 5554 ft | 242 kts | 94° |
| 2026-04-23 17:11 | 19.53013 | -156.15251 | 5274 ft | 232 kts | 94° |
| 2026-04-23 17:11 | 19.52881 | -156.13585 | 5103 ft | 219 kts | 94° |
| 2026-04-23 17:11 | 19.52759 | -156.12047 | 5034 ft | 203 kts | 94° |
| 2026-04-23 17:12 | 19.52644 | -156.10596 | 4870 ft | 193 kts | 94° |
| 2026-04-23 17:12 | 19.52532 | -156.09166 | 4379 ft | 200 kts | 93° |
| 2026-04-23 17:12 | 19.52724 | -156.07759 | 4119 ft | 191 kts | 61° |
| 2026-04-23 17:12 | 19.53614 | -156.06699 | 3980 ft | 195 kts | 31° |
| 2026-04-23 17:13 | 19.54904 | -156.06296 | 3677 ft | 192 kts | 5° |
| 2026-04-23 17:13 | 19.56215 | -156.06178 | 3330 ft | 182 kts | 6° |
| 2026-04-23 17:13 | 19.57466 | -156.06056 | 3007 ft | 172 kts | 6° |
| 2026-04-23 17:13 | 19.58649 | -156.05945 | 2759 ft | 161 kts | 6° |
| 2026-04-23 17:14 | 19.59715 | -156.05844 | 2574 ft | 149 kts | 5° |
| 2026-04-23 17:14 | 19.60818 | -156.05742 | 2434 ft | 164 kts | 5° |
| 2026-04-23 17:14 | 19.61920 | -156.05641 | 2168 ft | 154 kts | 5° |
| 2026-04-23 17:14 | 19.62968 | -156.05545 | 1865 ft | 145 kts | 4° |
| 2026-04-23 17:15 | 19.63948 | -156.05456 | 1565 ft | 141 kts | 4° |
| 2026-04-23 17:15 | 19.64940 | -156.05370 | 1224 ft | 141 kts | 5° |
| 2026-04-23 17:15 | 19.65914 | -156.05276 | 954 ft | 140 kts | 6° |
| 2026-04-23 17:15 | 19.66887 | -156.05183 | 738 ft | 143 kts | 5° |
| 2026-04-23 17:16 | 19.67922 | -156.05101 | 647 ft | 147 kts | 5° |
| 2026-04-23 17:16 | 19.68930 | -156.05020 | 582 ft | 146 kts | 6° |
| 2026-04-23 17:16 | 19.69955 | -156.04919 | 492 ft | 148 kts | 5° |
| 2026-04-23 17:16 | 19.70993 | -156.04828 | 356 ft | 146 kts | 6° |
| 2026-04-23 17:17 | 19.71988 | -156.04739 | 181 ft | 142 kts | 6° |
| 2026-04-23 17:17 | 19.72974 | -156.04649 | 54 ft | 136 kts | 7° |
| 2026-04-23 17:17 | 19.73721 | -156.04578 | 58 ft | 74 kts | 4° |
| 2026-04-23 17:17 | 19.74049 | -156.04550 | 62 ft | 23 kts | 5° |
| 2026-04-23 17:18 | 19.74134 | -156.04423 | 64 ft | 11 kts | 94° |
| 2026-04-23 17:18 | 19.74127 | -156.04344 | 65 ft | 10 kts | 98° |
| 2026-04-23 17:18 | 19.74092 | -156.04289 | 65 ft | 10 kts | 180° |
| 2026-04-23 17:19 | 19.74012 | -156.04297 | 63 ft | 12 kts | 185° |
| 2026-04-23 17:19 | 19.73915 | -156.04305 | 62 ft | 14 kts | 185° |
| 2026-04-23 17:19 | 19.73804 | -156.04315 | 60 ft | 16 kts | 185° |
| 2026-04-23 17:19 | 19.73683 | -156.04326 | 59 ft | 18 kts | 184° |
| 2026-04-23 17:20 | 19.73561 | -156.04336 | 58 ft | 12 kts | 186° |
| 2026-04-23 17:20 | 19.73389 | -156.04352 | 60 ft | 12 kts | 185° |
| 2026-04-23 17:21 | 19.73241 | -156.04358 | 63 ft | 8 kts | 156° |
| 2026-04-23 17:21 | 19.73214 | -156.04321 | 66 ft | 4 kts | 103° |
| 2026-04-23 17:21 | 19.73208 | -156.04263 | 69 ft | 6 kts | 113° |
| 2026-04-23 17:22 | 19.73157 | -156.04242 | 70 ft | 7 kts | 178° |
| 2026-04-23 17:22 | 19.73143 | -156.04221 | 71 ft | 1 kts | 99° |
| 2026-04-23 17:23 | 19.73141 | -156.04202 | 73 ft | 0 kts | 95° |
| 2026-04-23 17:23 | 19.73141 | -156.04201 | 73 ft | 0 kts | 96° |